Time;durP1;ratioP1;P1;durP2;ratioP2;P2;SDS_P1;SDS_P2;PMS_P1;PMS_P2;Temp;Humidity;BMP_temperature;BMP_pressure;BME280_temperature;BME280_humidity;BME280_pressure;Samples;Min_cycle;Max_cycle;Signal;HPM_P1;HPM_P2
2023/12/13 00:01:39;;;;;;;;;;;;;;;12.05;nan;100344.88;5043769;28;19928;-84
2023/12/13 00:04:04;;;;;;;;;;;;;;;12.05;nan;100345.69;5041557;28;19921;-83
2023/12/13 00:06:30;;;;;;;;;;;;;;;12.04;nan;100346.78;5044721;28;19936;-84
2023/12/13 00:08:55;;;;;;;;;;;;;;;12.07;nan;100345.41;5047018;28;19950;-84
2023/12/13 00:11:21;;;;;;;;;;;;;;;12.08;nan;100338.97;5044452;28;20059;-83
2023/12/13 00:13:46;;;;;;;;;;;;;;;12.09;nan;100333.34;5036125;28;20010;-83
2023/12/13 00:16:11;;;;;;;;;;;;;;;12.12;nan;100334.69;5040066;28;19921;-84
2023/12/13 00:18:37;;;;;;;;;;;;;;;12.12;nan;100336.56;5042884;28;19956;-84
2023/12/13 00:21:02;;;;;;;;;;;;;;;12.10;nan;100332.25;5047860;28;19921;-84
2023/12/13 00:23:28;;;;;;;;;;;;;;;12.10;nan;100324.19;5048976;28;19957;-84
2023/12/13 00:25:53;;;;;;;;;;;;;;;12.11;nan;100322.31;5045082;28;19916;-84
2023/12/13 00:28:18;;;;;;;;;;;;;;;12.09;nan;100317.22;5041426;28;20031;-83
2023/12/13 00:30:45;;;;;;;;;;;;;;;12.07;nan;100321.25;5043277;28;20027;-86
2023/12/13 00:33:11;;;;;;;;;;;;;;;12.07;nan;100313.19;5042458;28;19921;-84
2023/12/13 00:35:36;;;;;;;;;;;;;;;12.06;nan;100322.34;5053002;28;19912;-84
2023/12/13 00:38:03;;;;;;;;;;;;;;;12.04;nan;100319.91;5045655;28;19951;-84
2023/12/13 00:40:28;;;;;;;;;;;;;;;12.07;nan;100315.88;5047913;28;19962;-83
2023/12/13 00:42:55;;;;;;;;;;;;;;;12.07;nan;100307.84;5046673;28;19948;-83
2023/12/13 00:45:21;;;;;;;;;;;;;;;12.08;nan;100314.81;5045320;28;19928;-84
2023/12/13 00:47:47;;;;;;;;;;;;;;;12.08;nan;100310.25;5038262;28;19917;-86
2023/12/13 00:50:12;;;;;;;;;;;;;;;12.09;nan;100301.13;5041989;28;19998;-83
2023/12/13 00:52:37;;;;;;;;;;;;;;;12.06;nan;100300.84;5044231;28;19939;-83
2023/12/13 00:55:04;;;;;;;;;;;;;;;12.04;nan;100294.94;5042155;28;19924;-83
2023/12/13 00:57:32;;;;;;;;;;;;;;;12.03;nan;100296.03;5044191;28;19943;-83
2023/12/13 00:59:58;;;;;;;;;;;;;;;12.03;nan;100296.81;5043815;28;20182;-83
2023/12/13 01:02:24;;;;;;;;;;;;;;;12.03;nan;100293.34;5043425;28;20012;-84
2023/12/13 01:04:49;;;;;;;;;;;;;;;12.02;nan;100294.38;5037839;28;20043;-84
2023/12/13 01:07:14;;;;;;;;;;;;;;;12.01;nan;100304.31;5041248;28;19967;-84
2023/12/13 01:09:40;;;;;;;;;;;;;;;11.99;nan;100301.09;5048211;28;19928;-84
2023/12/13 01:12:06;;;;;;;;;;;;;;;11.97;nan;100303.25;5041239;28;19925;-83
2023/12/13 01:14:33;;;;;;;;;;;;;;;11.96;nan;100306.19;5041247;28;20193;-83
2023/12/13 01:16:59;;;;;;;;;;;;;;;11.99;nan;100311.03;5041460;28;19925;-83
2023/12/13 01:19:24;;;;;;;;;;;;;;;12.00;nan;100312.63;5018879;28;19931;-84
2023/12/13 01:21:50;;;;;;;;;;;;;;;11.99;nan;100316.41;5038585;28;19975;-83
2023/12/13 01:24:15;;;;;;;;;;;;;;;11.97;nan;100319.34;5041008;28;19921;-84
2023/12/13 01:26:40;;;;;;;;;;;;;;;11.98;nan;100317.47;5049592;28;19936;-83
2023/12/13 01:29:06;;;;;;;;;;;;;;;11.99;nan;100321.78;5042099;28;19925;-84
2023/12/13 01:31:31;;;;;;;;;;;;;;;11.97;nan;100324.72;5043451;28;19974;-83
2023/12/13 01:33:56;;;;;;;;;;;;;;;11.97;nan;100316.66;5027245;28;19920;-84
2023/12/13 01:36:22;;;;;;;;;;;;;;;11.98;nan;100306.75;5044007;28;20603;-83
2023/12/13 01:38:47;;;;;;;;;;;;;;;11.99;nan;100297.59;5041790;28;20503;-84
2023/12/13 01:41:13;;;;;;;;;;;;;;;11.99;nan;100289.56;5037835;28;19925;-84
2023/12/13 01:43:38;;;;;;;;;;;;;;;11.97;nan;100279.09;5025186;28;20627;-84
2023/12/13 01:46:04;;;;;;;;;;;;;;;11.97;nan;100278.28;5041367;28;19947;-83
2023/12/13 01:48:29;;;;;;;;;;;;;;;11.98;nan;100271.84;5038518;28;20419;-83
2023/12/13 01:50:55;;;;;;;;;;;;;;;11.97;nan;100275.59;5041873;28;19929;-84
2023/12/13 01:53:22;;;;;;;;;;;;;;;11.99;nan;100281.50;5041777;28;20008;-83
2023/12/13 01:55:47;;;;;;;;;;;;;;;11.99;nan;100274.25;5038851;28;20401;-84
2023/12/13 01:58:15;;;;;;;;;;;;;;;11.97;nan;100276.41;5043899;28;19917;-84
2023/12/13 02:00:41;;;;;;;;;;;;;;;11.98;nan;100271.84;5026970;28;19923;-83
2023/12/13 02:03:08;;;;;;;;;;;;;;;11.96;nan;100266.75;5038156;28;19928;-83
2023/12/13 02:05:35;;;;;;;;;;;;;;;11.97;nan;100264.84;5044165;28;20369;-83
2023/12/13 02:08:00;;;;;;;;;;;;;;;11.98;nan;100261.09;5038274;28;19928;-83
2023/12/13 02:10:26;;;;;;;;;;;;;;;12.00;nan;100250.88;5029433;28;20719;-83
2023/12/13 02:12:51;;;;;;;;;;;;;;;11.99;nan;100249.28;5042529;28;19917;-84
2023/12/13 02:15:16;;;;;;;;;;;;;;;11.98;nan;100253.03;5039036;28;19921;-83
2023/12/13 02:17:48;;;;;;;;;;;;;;;11.97;nan;100254.91;5040473;28;19917;-84
2023/12/13 02:20:14;;;;;;;;;;;;;;;11.99;nan;100249.28;5037610;28;19928;-84
2023/12/13 02:22:39;;;;;;;;;;;;;;;11.98;nan;100247.66;5038990;28;20362;-83
2023/12/13 02:25:07;;;;;;;;;;;;;;;11.99;nan;100236.66;5039575;28;19979;-84
2023/12/13 02:27:33;;;;;;;;;;;;;;;12.01;nan;100233.69;5037452;28;20459;-84
2023/12/13 02:29:58;;;;;;;;;;;;;;;12.02;nan;100225.38;5041808;28;19956;-84
2023/12/13 02:32:24;;;;;;;;;;;;;;;12.04;nan;100233.19;5025178;28;19925;-83
2023/12/13 02:34:49;;;;;;;;;;;;;;;12.02;nan;100228.06;5041172;28;20377;-84
2023/12/13 02:37:15;;;;;;;;;;;;;;;12.02;nan;100227.25;5049751;28;19975;-83
2023/12/13 02:39:41;;;;;;;;;;;;;;;12.01;nan;100220.28;5044839;28;19921;-84
2023/12/13 02:42:06;;;;;;;;;;;;;;;12.00;nan;100216.78;5027264;28;19942;-84
2023/12/13 02:44:32;;;;;;;;;;;;;;;12.00;nan;100224.03;5037108;28;19925;-84
2023/12/13 02:46:59;;;;;;;;;;;;;;;12.01;nan;100217.59;5040563;28;19920;-83
2023/12/13 02:49:24;;;;;;;;;;;;;;;11.99;nan;100215.19;5043189;28;19928;-83
2023/12/13 02:51:50;;;;;;;;;;;;;;;12.00;nan;100210.63;5039550;28;20415;-85
2023/12/13 02:54:16;;;;;;;;;;;;;;;11.99;nan;100209.81;5022511;28;19918;-84
2023/12/13 02:56:42;;;;;;;;;;;;;;;12.00;nan;100211.41;5042271;28;19942;-84
2023/12/13 02:59:07;;;;;;;;;;;;;;;11.99;nan;100204.44;5036250;28;19921;-85
2023/12/13 03:01:32;;;;;;;;;;;;;;;12.04;nan;100203.66;5041157;28;20551;-84
2023/12/13 03:03:57;;;;;;;;;;;;;;;12.05;nan;100202.56;5038605;28;19999;-84
2023/12/13 03:06:23;;;;;;;;;;;;;;;12.03;nan;100194.00;5040272;28;19920;-84
2023/12/13 03:08:48;;;;;;;;;;;;;;;12.02;nan;100195.84;5041741;28;19920;-84
2023/12/13 03:11:13;;;;;;;;;;;;;;;12.02;nan;100195.03;5037844;28;19929;-83
2023/12/13 03:13:39;;;;;;;;;;;;;;;12.00;nan;100194.50;5041786;28;20510;-84
2023/12/13 03:16:05;;;;;;;;;;;;;;;12.01;nan;100188.88;5044175;28;19921;-84
2023/12/13 03:18:30;;;;;;;;;;;;;;;12.03;nan;100178.69;5040366;28;19921;-84
2023/12/13 03:20:56;;;;;;;;;;;;;;;12.06;nan;100185.38;5041413;28;19916;-84
2023/12/13 03:23:22;;;;;;;;;;;;;;;12.07;nan;100181.63;5040404;28;19972;-83
2023/12/13 03:25:47;;;;;;;;;;;;;;;12.08;nan;100175.19;5037008;28;19927;-84
2023/12/13 03:28:12;;;;;;;;;;;;;;;12.08;nan;100177.88;5025295;28;19932;-85
2023/12/13 03:30:37;;;;;;;;;;;;;;;12.07;nan;100170.88;5039714;28;19941;-84
2023/12/13 03:33:03;;;;;;;;;;;;;;;12.07;nan;100170.88;5037270;28;19917;-83
2023/12/13 03:35:28;;;;;;;;;;;;;;;12.07;nan;100157.47;5037977;28;19944;-84
2023/12/13 03:37:54;;;;;;;;;;;;;;;12.08;nan;100161.75;5037839;28;20479;-84
2023/12/13 03:40:19;;;;;;;;;;;;;;;12.05;nan;100165.00;5045212;28;20340;-83
2023/12/13 03:42:44;;;;;;;;;;;;;;;12.05;nan;100160.41;5038078;28;20385;-84
2023/12/13 03:45:10;;;;;;;;;;;;;;;12.06;nan;100158.53;5037030;28;19921;-83
2023/12/13 03:47:35;;;;;;;;;;;;;;;12.06;nan;100150.47;5041136;28;20003;-84
2023/12/13 03:50:00;;;;;;;;;;;;;;;12.06;nan;100166.59;5049289;28;20012;-84
2023/12/13 03:52:26;;;;;;;;;;;;;;;12.05;nan;100160.41;5045834;28;20384;-83
2023/12/13 03:54:51;;;;;;;;;;;;;;;12.05;nan;100154.25;5049535;28;20419;-85
2023/12/13 03:57:16;;;;;;;;;;;;;;;12.07;nan;100155.56;5045674;28;19959;-83
2023/12/13 03:59:42;;;;;;;;;;;;;;;12.05;nan;100149.69;5053070;28;19920;-84
2023/12/13 04:02:07;;;;;;;;;;;;;;;12.07;nan;100146.72;5026494;28;19975;-84
2023/12/13 04:04:32;;;;;;;;;;;;;;;12.07;nan;100146.72;5053999;28;19921;-84
2023/12/13 04:06:59;;;;;;;;;;;;;;;12.08;nan;100141.06;5047064;28;20023;-84
2023/12/13 04:09:24;;;;;;;;;;;;;;;12.10;nan;100132.75;5031942;28;20019;-84
2023/12/13 04:11:50;;;;;;;;;;;;;;;12.11;nan;100137.03;5039942;28;20040;-84
2023/12/13 04:14:15;;;;;;;;;;;;;;;12.09;nan;100137.31;5039193;28;19917;-83
2023/12/13 04:16:40;;;;;;;;;;;;;;;12.09;nan;100129.25;5045103;28;19917;-84
2023/12/13 04:19:06;;;;;;;;;;;;;;;12.11;nan;100131.66;5051509;28;19932;-84
2023/12/13 04:21:31;;;;;;;;;;;;;;;12.11;nan;100128.97;5051806;28;19917;-83
2023/12/13 04:23:56;;;;;;;;;;;;;;;12.10;nan;100120.13;5042203;28;19920;-84
2023/12/13 04:26:21;;;;;;;;;;;;;;;12.09;nan;100115.03;5045753;28;19920;-84
2023/12/13 04:28:47;;;;;;;;;;;;;;;12.07;nan;100109.13;5025220;28;19921;-84
2023/12/13 04:31:12;;;;;;;;;;;;;;;12.05;nan;100114.78;5042262;28;19952;-84
2023/12/13 04:33:37;;;;;;;;;;;;;;;12.06;nan;100112.88;5042498;28;19929;-84
2023/12/13 04:36:03;;;;;;;;;;;;;;;12.07;nan;100118.00;5037579;28;19917;-84
2023/12/13 04:38:29;;;;;;;;;;;;;;;12.08;nan;100122.28;5045729;28;19932;-84
2023/12/13 04:40:54;;;;;;;;;;;;;;;12.08;nan;100124.16;5040710;28;19917;-84
2023/12/13 04:43:19;;;;;;;;;;;;;;;12.07;nan;100128.72;5049636;28;19978;-84
2023/12/13 04:45:45;;;;;;;;;;;;;;;12.07;nan;100120.66;5026634;28;20007;-84
2023/12/13 04:48:10;;;;;;;;;;;;;;;12.06;nan;100112.88;5043402;28;19921;-84
2023/12/13 04:50:35;;;;;;;;;;;;;;;12.05;nan;100116.66;5044289;28;19964;-84
2023/12/13 04:53:02;;;;;;;;;;;;;;;12.06;nan;100118.25;5036392;28;20023;-84
2023/12/13 04:55:27;;;;;;;;;;;;;;;12.07;nan;100119.88;5044751;28;19920;-83
2023/12/13 04:57:52;;;;;;;;;;;;;;;12.07;nan;100117.19;5040913;28;19924;-86
2023/12/13 05:00:18;;;;;;;;;;;;;;;12.07;nan;100117.19;5043206;28;19925;-84
2023/12/13 05:02:43;;;;;;;;;;;;;;;12.07;nan;100117.19;5044604;28;19928;-84
2023/12/13 05:05:09;;;;;;;;;;;;;;;12.08;nan;100116.09;5041514;28;19928;-84
2023/12/13 05:07:34;;;;;;;;;;;;;;;12.08;nan;100116.09;5038996;28;19920;-84
2023/12/13 05:09:59;;;;;;;;;;;;;;;12.08;nan;100114.22;5038463;28;20403;-84
2023/12/13 05:12:25;;;;;;;;;;;;;;;12.07;nan;100109.13;5043109;28;19943;-83
2023/12/13 05:14:50;;;;;;;;;;;;;;;12.07;nan;100106.44;5043463;28;20676;-84
2023/12/13 05:17:15;;;;;;;;;;;;;;;12.05;nan;100103.22;5038277;28;19974;-84
2023/12/13 05:19:41;;;;;;;;;;;;;;;12.06;nan;100107.53;5038423;28;20463;-84
2023/12/13 05:22:06;;;;;;;;;;;;;;;12.06;nan;100091.41;5042366;28;19920;-84
2023/12/13 05:24:33;;;;;;;;;;;;;;;12.08;nan;100094.63;5028546;28;19939;-83
2023/12/13 05:26:58;;;;;;;;;;;;;;;12.06;nan;100091.41;5042132;28;19956;-84
2023/12/13 05:29:23;;;;;;;;;;;;;;;12.07;nan;100093.03;5046041;28;19948;-84
2023/12/13 05:31:48;;;;;;;;;;;;;;;12.07;nan;100095.69;5043952;28;20027;-84
2023/12/13 05:34:14;;;;;;;;;;;;;;;12.07;nan;100087.66;5037488;28;19970;-83
2023/12/13 05:36:39;;;;;;;;;;;;;;;12.08;nan;100089.25;5024998;28;19986;-84
2023/12/13 05:39:04;;;;;;;;;;;;;;;12.08;nan;100094.63;5040797;28;19920;-83
2023/12/13 05:41:30;;;;;;;;;;;;;;;12.05;nan;100081.75;5043068;28;19924;-84
2023/12/13 05:43:55;;;;;;;;;;;;;;;12.04;nan;100083.63;5040375;28;19960;-84
2023/12/13 05:46:21;;;;;;;;;;;;;;;12.05;nan;100087.13;5023825;28;19946;-84
2023/12/13 05:48:47;;;;;;;;;;;;;;;12.03;nan;100097.34;5031130;28;19986;-85
2023/12/13 05:51:12;;;;;;;;;;;;;;;12.01;nan;100092.22;5039536;28;19929;-84
2023/12/13 05:53:37;;;;;;;;;;;;;;;12.02;nan;100093.00;5042691;28;19928;-84
2023/12/13 05:56:03;;;;;;;;;;;;;;;12.02;nan;100096.50;5042079;28;19920;-83
2023/12/13 05:58:29;;;;;;;;;;;;;;;12.01;nan;100099.47;5046536;28;19971;-84
2023/12/13 06:00:55;;;;;;;;;;;;;;;12.00;nan;100092.47;5045258;28;19925;-84
2023/12/13 06:03:21;;;;;;;;;;;;;;;12.00;nan;100103.22;5043913;28;20344;-84
2023/12/13 06:05:46;;;;;;;;;;;;;;;12.00;nan;100098.66;5041484;28;19932;-83
2023/12/13 06:08:11;;;;;;;;;;;;;;;12.01;nan;100100.25;5046182;28;20013;-84
2023/12/13 06:10:36;;;;;;;;;;;;;;;12.02;nan;100106.44;5040037;28;19929;-83
2023/12/13 06:13:02;;;;;;;;;;;;;;;12.01;nan;100102.16;5037539;28;19921;-84
2023/12/13 06:15:27;;;;;;;;;;;;;;;12.02;nan;100101.88;5046520;28;19942;-84
2023/12/13 06:17:52;;;;;;;;;;;;;;;12.04;nan;100094.38;5039840;28;19920;-84
2023/12/13 06:20:18;;;;;;;;;;;;;;;12.04;nan;100098.94;5038865;28;20305;-84
2023/12/13 06:22:43;;;;;;;;;;;;;;;12.04;nan;100101.63;5045035;28;20400;-85
2023/12/13 06:25:08;;;;;;;;;;;;;;;12.04;nan;100101.63;5041440;28;19968;-84
2023/12/13 06:27:34;;;;;;;;;;;;;;;12.06;nan;100104.84;5046364;28;19956;-84
2023/12/13 06:29:59;;;;;;;;;;;;;;;12.05;nan;100101.34;5045409;28;19920;-84
2023/12/13 06:32:24;;;;;;;;;;;;;;;12.04;nan;100104.31;5047411;28;19924;-84
2023/12/13 06:34:50;;;;;;;;;;;;;;;12.02;nan;100101.06;5040071;28;20035;-84
2023/12/13 06:37:15;;;;;;;;;;;;;;;12.03;nan;100105.38;5041031;28;19966;-84
2023/12/13 06:39:40;;;;;;;;;;;;;;;12.02;nan;100096.50;5046719;28;19917;-84
2023/12/13 06:42:09;;;;;;;;;;;;;;;12.02;nan;100101.88;5049794;28;19931;-84
2023/12/13 06:44:35;;;;;;;;;;;;;;;12.03;nan;100100.03;5041180;28;20039;-84
2023/12/13 06:47:00;;;;;;;;;;;;;;;12.04;nan;100105.13;5043046;28;20459;-84
2023/12/13 06:49:30;;;;;;;;;;;;;;;12.04;nan;100097.06;5038154;28;20429;-84
2023/12/13 06:51:56;;;;;;;;;;;;;;;12.05;nan;100101.34;5035738;28;19983;-84
2023/12/13 06:54:21;;;;;;;;;;;;;;;12.07;nan;100101.88;5040621;28;20361;-84
2023/12/13 06:56:46;;;;;;;;;;;;;;;12.09;nan;100101.59;5039401;28;19917;-84
2023/12/13 06:59:12;;;;;;;;;;;;;;;12.08;nan;100090.06;5019560;28;20428;-83
2023/12/13 07:01:37;;;;;;;;;;;;;;;12.06;nan;100097.59;5045951;28;19963;-84
2023/12/13 07:04:02;;;;;;;;;;;;;;;12.06;nan;100092.22;5043725;28;19925;-84
2023/12/13 07:06:28;;;;;;;;;;;;;;;12.06;nan;100086.03;5044712;28;19920;-84
2023/12/13 07:08:53;;;;;;;;;;;;;;;12.07;nan;100093.03;5041678;28;19921;-84
2023/12/13 07:11:19;;;;;;;;;;;;;;;12.05;nan;100098.66;5035989;28;19979;-84
2023/12/13 07:13:46;;;;;;;;;;;;;;;12.06;nan;100094.09;5043178;28;20316;-84
2023/12/13 07:16:11;;;;;;;;;;;;;;;12.03;nan;100087.41;5038302;28;21381;-84
2023/12/13 07:18:37;;;;;;;;;;;;;;;11.99;nan;100088.19;5041084;28;20404;-84
2023/12/13 07:21:03;;;;;;;;;;;;;;;11.97;nan;100091.16;5043940;28;20376;-85
2023/12/13 07:23:31;;;;;;;;;;;;;;;11.97;nan;100096.53;5028601;28;19971;-84
2023/12/13 07:25:57;;;;;;;;;;;;;;;11.97;nan;100104.56;5036938;28;19924;-84
2023/12/13 07:28:22;;;;;;;;;;;;;;;11.97;nan;100098.41;5038651;28;19917;-85
2023/12/13 07:30:47;;;;;;;;;;;;;;;11.97;nan;100101.91;5023706;28;19921;-85
2023/12/13 07:33:13;;;;;;;;;;;;;;;11.98;nan;100100.00;5025493;28;19946;-84
2023/12/13 07:35:39;;;;;;;;;;;;;;;11.96;nan;100108.34;5044303;28;20424;-85
2023/12/13 07:38:04;;;;;;;;;;;;;;;11.96;nan;100108.34;5039237;28;19931;-85
2023/12/13 07:40:30;;;;;;;;;;;;;;;11.99;nan;100115.03;5033741;28;19931;-85
2023/12/13 07:42:55;;;;;;;;;;;;;;;11.99;nan;100115.84;5035440;28;19917;-85
2023/12/13 07:45:22;;;;;;;;;;;;;;;11.98;nan;100116.13;5040481;28;19932;-85
2023/12/13 07:47:48;;;;;;;;;;;;;;;11.98;nan;100111.56;5039765;28;19924;-85
2023/12/13 07:50:14;;;;;;;;;;;;;;;11.98;nan;100116.91;5040272;28;20503;-85
2023/12/13 07:52:39;;;;;;;;;;;;;;;12.01;nan;100118.25;5034036;28;19935;-85
2023/12/13 07:55:05;;;;;;;;;;;;;;;12.02;nan;100114.50;5034570;28;19964;-85
2023/12/13 07:57:30;;;;;;;;;;;;;;;12.05;nan;100116.66;5033495;28;20031;-84
2023/12/13 07:59:55;;;;;;;;;;;;;;;12.06;nan;100124.44;5034579;28;19927;-85
2023/12/13 08:02:21;;;;;;;;;;;;;;;12.07;nan;100122.56;5036606;28;19983;-84
2023/12/13 08:04:46;;;;;;;;;;;;;;;12.07;nan;100118.00;5035061;28;19917;-84
2023/12/13 08:07:11;;;;;;;;;;;;;;;12.08;nan;100129.53;5033345;28;19921;-85
2023/12/13 08:09:37;;;;;;;;;;;;;;;12.10;nan;100125.50;5034477;28;19917;-86
2023/12/13 08:12:02;;;;;;;;;;;;;;;12.08;nan;100124.97;5036410;28;19971;-85
2023/12/13 08:14:30;;;;;;;;;;;;;;;12.08;nan;100124.16;5034993;28;20417;-85
2023/12/13 08:16:56;;;;;;;;;;;;;;;12.10;nan;100128.19;5036209;28;20420;-85
2023/12/13 08:19:22;;;;;;;;;;;;;;;12.12;nan;100129.78;5032324;28;20314;-85
2023/12/13 08:21:47;;;;;;;;;;;;;;;12.12;nan;100127.91;5035366;28;19920;-85
2023/12/13 08:24:12;;;;;;;;;;;;;;;12.14;nan;100120.38;5035395;28;19924;-85
2023/12/13 08:26:38;;;;;;;;;;;;;;;12.16;nan;100123.59;5036513;28;20635;-85
2023/12/13 08:29:03;;;;;;;;;;;;;;;12.18;nan;100126.81;5040085;28;20532;-84
2023/12/13 08:31:29;;;;;;;;;;;;;;;12.19;nan;100120.34;5023700;28;20375;-85
2023/12/13 08:33:54;;;;;;;;;;;;;;;12.19;nan;100119.53;5038724;28;19921;-84
2023/12/13 08:36:19;;;;;;;;;;;;;;;12.19;nan;100120.34;5039146;28;20497;-85
2023/12/13 08:38:45;;;;;;;;;;;;;;;12.18;nan;100118.75;5038544;28;19928;-84
2023/12/13 08:41:13;;;;;;;;;;;;;;;12.19;nan;100116.84;5034908;28;19967;-85
2023/12/13 08:43:39;;;;;;;;;;;;;;;12.17;nan;100119.03;5033823;28;20039;-84
2023/12/13 08:46:04;;;;;;;;;;;;;;;12.18;nan;100126.00;5036750;28;20556;-85
2023/12/13 08:48:30;;;;;;;;;;;;;;;12.14;nan;100133.78;5036503;28;19921;-85
2023/12/13 08:50:56;;;;;;;;;;;;;;;12.09;nan;100131.94;5037275;28;20601;-84
2023/12/13 08:53:21;;;;;;;;;;;;;;;12.09;nan;100136.50;5036544;28;20003;-85
2023/12/13 08:55:46;;;;;;;;;;;;;;;12.12;nan;100130.59;5023860;28;20020;-85
2023/12/13 08:58:13;;;;;;;;;;;;;;;12.14;nan;100133.78;5017839;28;19990;-84
2023/12/13 09:00:38;;;;;;;;;;;;;;;12.14;nan;100128.44;5037622;28;19921;-84
2023/12/13 09:03:04;;;;;;;;;;;;;;;12.14;nan;100131.13;5036860;28;19927;-84
2023/12/13 09:05:29;;;;;;;;;;;;;;;12.13;nan;100129.50;5033563;28;19924;-84
2023/12/13 09:07:55;;;;;;;;;;;;;;;12.14;nan;100127.63;5035650;28;20436;-85
2023/12/13 09:10:20;;;;;;;;;;;;;;;12.14;nan;100131.13;5034428;28;19920;-84
2023/12/13 09:12:46;;;;;;;;;;;;;;;12.15;nan;100134.59;5032134;28;19929;-85
2023/12/13 09:15:11;;;;;;;;;;;;;;;12.15;nan;100129.22;5033966;28;19928;-84
2023/12/13 09:17:37;;;;;;;;;;;;;;;12.11;nan;100131.66;5032779;28;20443;-84
2023/12/13 09:20:02;;;;;;;;;;;;;;;12.10;nan;100130.06;5035635;28;19921;-85
2023/12/13 09:22:27;;;;;;;;;;;;;;;12.11;nan;100137.03;5034924;28;19932;-84
2023/12/13 09:24:53;;;;;;;;;;;;;;;12.12;nan;100130.59;5038383;28;19917;-84
2023/12/13 09:27:19;;;;;;;;;;;;;;;12.10;nan;100132.75;5033574;28;20456;-84
2023/12/13 09:29:44;;;;;;;;;;;;;;;12.11;nan;100137.03;5034272;28;20007;-84
2023/12/13 09:32:09;;;;;;;;;;;;;;;12.12;nan;100135.97;5032426;28;19963;-84
2023/12/13 09:34:35;;;;;;;;;;;;;;;12.10;nan;100124.69;5034205;28;19917;-84
2023/12/13 09:37:00;;;;;;;;;;;;;;;12.08;nan;100126.84;5034019;28;19921;-83
2023/12/13 09:39:25;;;;;;;;;;;;;;;12.07;nan;100120.66;5031691;28;20621;-84
2023/12/13 09:42:00;;;;;;;;;;;;;;;12.07;nan;100119.88;5032602;28;19921;-84
2023/12/13 09:44:26;;;;;;;;;;;;;;;12.07;nan;100122.56;5031210;28;19920;-84
2023/12/13 09:46:52;;;;;;;;;;;;;;;12.07;nan;100126.03;5031041;28;19948;-83
2023/12/13 09:49:18;;;;;;;;;;;;;;;12.08;nan;100126.84;5034444;28;19920;-84
2023/12/13 09:51:46;;;;;;;;;;;;;;;12.09;nan;100123.09;5010551;28;19976;-83
2023/12/13 09:54:12;;;;;;;;;;;;;;;12.06;nan;100127.13;5015301;28;19917;-84
2023/12/13 09:56:37;;;;;;;;;;;;;;;12.04;nan;100121.22;5030990;28;20349;-83
2023/12/13 09:59:03;;;;;;;;;;;;;;;12.04;nan;100131.97;5020653;28;19959;-84
2023/12/13 10:01:29;;;;;;;;;;;;;;;12.07;nan;100125.25;5034400;28;19925;-83
2023/12/13 10:03:54;;;;;;;;;;;;;;;12.08;nan;100119.59;5032818;28;19917;-84
2023/12/13 10:06:20;;;;;;;;;;;;;;;12.09;nan;100117.72;5034852;28;19990;-84
2023/12/13 10:08:52;;;;;;;;;;;;;;;12.10;nan;100113.94;5012241;28;20124;-83
2023/12/13 10:11:17;;;;;;;;;;;;;;;12.10;nan;100108.56;5035099;28;19928;-83
2023/12/13 10:13:43;;;;;;;;;;;;;;;12.08;nan;100102.69;5020359;28;19925;-83
2023/12/13 10:16:10;;;;;;;;;;;;;;;12.08;nan;100108.84;5036134;28;19960;-83
2023/12/13 10:18:35;;;;;;;;;;;;;;;12.07;nan;100096.50;5034064;28;19928;-84
2023/12/13 10:21:00;;;;;;;;;;;;;;;12.03;nan;100095.44;5034845;28;19921;-84
2023/12/13 10:23:27;;;;;;;;;;;;;;;12.03;nan;100097.34;5035633;28;20377;-83
2023/12/13 10:25:52;;;;;;;;;;;;;;;12.01;nan;100097.56;5034658;28;20452;-83
2023/12/13 10:28:20;;;;;;;;;;;;;;;12.00;nan;100098.66;5033088;28;20027;-83
2023/12/13 10:30:45;;;;;;;;;;;;;;;11.99;nan;100096.25;5029816;28;19979;-84
2023/12/13 10:33:10;;;;;;;;;;;;;;;11.98;nan;100090.06;5032275;28;19921;-84
2023/12/13 10:35:36;;;;;;;;;;;;;;;11.97;nan;100088.47;5033804;28;19917;-83
2023/12/13 10:38:02;;;;;;;;;;;;;;;11.98;nan;100095.44;5034496;28;19968;-83
2023/12/13 10:40:28;;;;;;;;;;;;;;;11.99;nan;100093.56;5038136;28;20402;-84
2023/12/13 10:42:55;;;;;;;;;;;;;;;11.99;nan;100099.72;5031212;28;20008;-84
2023/12/13 10:45:22;;;;;;;;;;;;;;;12.00;nan;100089.78;5039711;28;19925;-83
2023/12/13 10:47:49;;;;;;;;;;;;;;;11.99;nan;100093.56;5036327;28;19924;-83
2023/12/13 10:50:14;;;;;;;;;;;;;;;11.99;nan;100085.50;5017090;28;19920;-83
2023/12/13 10:52:41;;;;;;;;;;;;;;;11.97;nan;100091.16;5036341;28;19931;-84
2023/12/13 10:55:07;;;;;;;;;;;;;;;11.98;nan;100083.91;5035341;28;20289;-84
2023/12/13 10:57:33;;;;;;;;;;;;;;;11.97;nan;100088.47;5035832;28;19927;-83
2023/12/13 10:59:59;;;;;;;;;;;;;;;11.98;nan;100094.63;5032592;28;19917;-83
2023/12/13 11:02:26;;;;;;;;;;;;;;;11.99;nan;100090.88;5033866;28;19969;-83
2023/12/13 11:04:52;;;;;;;;;;;;;;;12.01;nan;100096.78;5033972;28;19967;-83
2023/12/13 11:07:17;;;;;;;;;;;;;;;12.01;nan;100096.78;5037848;28;19921;-83
2023/12/13 11:09:49;;;;;;;;;;;;;;;12.00;nan;100092.47;5015426;28;19920;-82
2023/12/13 11:12:18;;;;;;;;;;;;;;;11.98;nan;100094.63;5039435;28;20029;-83
2023/12/13 11:14:46;;;;;;;;;;;;;;;11.98;nan;100086.59;5035193;28;20058;-83
2023/12/13 11:17:12;;;;;;;;;;;;;;;12.00;nan;100097.84;5027852;28;20396;-83
2023/12/13 11:19:38;;;;;;;;;;;;;;;11.99;nan;100099.72;5010365;28;19921;-83
2023/12/13 11:22:06;;;;;;;;;;;;;;;11.97;nan;100095.72;5034778;28;19974;-84
2023/12/13 11:24:36;;;;;;;;;;;;;;;11.99;nan;100098.94;5037250;28;19923;-83
2023/12/13 11:27:08;;;;;;;;;;;;;;;12.01;nan;100094.09;5014427;28;19951;-83
2023/12/13 11:29:33;;;;;;;;;;;;;;;12.04;nan;100098.94;5017814;28;20011;-83
2023/12/13 11:32:03;;;;;;;;;;;;;;;12.05;nan;100100.53;5027730;28;19937;-83
2023/12/13 11:34:31;;;;;;;;;;;;;;;12.08;nan;100100.00;5027827;28;19929;-83
2023/12/13 11:36:57;;;;;;;;;;;;;;;12.10;nan;100097.84;5025991;28;20024;-83
2023/12/13 11:39:23;;;;;;;;;;;;;;;12.12;nan;100094.88;5024955;28;19931;-83
2023/12/13 11:41:48;;;;;;;;;;;;;;;12.13;nan;100102.66;5027106;28;21185;-83
2023/12/13 11:44:14;;;;;;;;;;;;;;;12.14;nan;100104.25;5025607;28;20483;-83
2023/12/13 11:46:39;;;;;;;;;;;;;;;12.14;nan;100104.25;5028556;28;20266;-83
2023/12/13 11:49:04;;;;;;;;;;;;;;;12.14;nan;100100.78;5028300;28;19925;-83
2023/12/13 11:51:30;;;;;;;;;;;;;;;12.14;nan;100098.09;5027747;28;19968;-83
2023/12/13 11:53:55;;;;;;;;;;;;;;;12.13;nan;100097.28;5026375;28;20313;-83
2023/12/13 11:56:21;;;;;;;;;;;;;;;12.12;nan;100095.69;5027473;28;19971;-83
2023/12/13 11:58:47;;;;;;;;;;;;;;;12.13;nan;100101.84;5027563;28;19925;-83
2023/12/13 12:01:15;;;;;;;;;;;;;;;12.15;nan;100102.38;5016681;28;19927;-82
2023/12/13 12:03:41;;;;;;;;;;;;;;;12.16;nan;100099.41;5011138;28;19950;-83
2023/12/13 12:06:15;;;;;;;;;;;;;;;12.16;nan;100098.63;5031176;28;19924;-84
2023/12/13 12:08:42;;;;;;;;;;;;;;;12.17;nan;100094.84;5032225;28;20011;-83
2023/12/13 12:11:07;;;;;;;;;;;;;;;12.17;nan;100098.34;5031909;28;20336;-83
2023/12/13 12:13:32;;;;;;;;;;;;;;;12.19;nan;100101.56;5032113;28;19921;-83
2023/12/13 12:15:59;;;;;;;;;;;;;;;12.20;nan;100095.09;5029251;28;19928;-83
2023/12/13 12:18:25;;;;;;;;;;;;;;;12.18;nan;100097.25;5031081;28;20376;-82
2023/12/13 12:20:51;;;;;;;;;;;;;;;12.18;nan;100093.78;5031733;28;19921;-83
2023/12/13 12:23:17;;;;;;;;;;;;;;;12.18;nan;100099.13;5031265;28;20638;-83
2023/12/13 12:25:42;;;;;;;;;;;;;;;12.17;nan;100092.97;5031273;28;19966;-83
2023/12/13 12:28:10;;;;;;;;;;;;;;;12.18;nan;100099.13;5030109;28;19933;-85
2023/12/13 12:30:35;;;;;;;;;;;;;;;12.16;nan;100098.63;5028008;28;19931;-83
2023/12/13 12:33:00;;;;;;;;;;;;;;;12.15;nan;100097.81;5030964;28;19925;-84
2023/12/13 12:35:26;;;;;;;;;;;;;;;12.13;nan;100099.97;5029912;28;19924;-83
2023/12/13 12:37:51;;;;;;;;;;;;;;;12.11;nan;100102.13;5029711;28;19925;-82
2023/12/13 12:40:17;;;;;;;;;;;;;;;12.10;nan;100097.84;5030032;28;19986;-83
2023/12/13 12:42:45;;;;;;;;;;;;;;;12.12;nan;100100.25;5029767;28;19917;-84
2023/12/13 12:45:10;;;;;;;;;;;;;;;12.11;nan;100104.81;5030718;28;19972;-83
2023/12/13 12:47:35;;;;;;;;;;;;;;;12.11;nan;100104.81;5031362;28;19998;-83
2023/12/13 12:50:02;;;;;;;;;;;;;;;12.10;nan;100111.25;5028971;28;20344;-83